Time;durP1;ratioP1;P1;durP2;ratioP2;P2;SDS_P1;SDS_P2;PMS_P1;PMS_P2;Temp;Humidity;BMP_temperature;BMP_pressure;BME280_temperature;BME280_humidity;BME280_pressure;Samples;Min_cycle;Max_cycle;Signal;HPM_P1;HPM_P2
2024/02/29 00:00:39;;;;;;;15.20;10.20;;;11.00;87.50;;;;;;5053720;28;20481;-78
2024/02/29 00:03:04;;;;;;;14.10;9.45;;;11.00;87.40;;;;;;5052362;28;20032;-78
2024/02/29 00:05:30;;;;;;;14.40;9.32;;;11.00;87.50;;;;;;5035623;28;20024;-78
2024/02/29 00:07:55;;;;;;;13.50;9.20;;;11.00;87.40;;;;;;5035419;28;20031;-78
2024/02/29 00:10:21;;;;;;;14.55;9.23;;;11.00;87.50;;;;;;5053429;28;20023;-78
2024/02/29 00:12:47;;;;;;;13.48;9.20;;;11.00;87.30;;;;;;5053343;28;20428;-78
2024/02/29 00:15:12;;;;;;;14.38;9.40;;;11.00;87.40;;;;;;5053234;28;20024;-77
2024/02/29 00:17:38;;;;;;;14.55;9.40;;;11.00;87.30;;;;;;5053174;28;20508;-78
2024/02/29 00:20:08;;;;;;;14.30;9.50;;;11.00;87.40;;;;;;5053393;28;20036;-78
2024/02/29 00:22:34;;;;;;;13.85;9.23;;;11.00;87.50;;;;;;5053082;28;20048;-77
2024/02/29 00:25:00;;;;;;;13.60;8.77;;;11.00;87.40;;;;;;5053234;28;20064;-77
2024/02/29 00:27:26;;;;;;;15.10;9.90;;;11.00;87.90;;;;;;5035050;28;20033;-77
2024/02/29 00:29:51;;;;;;;14.02;8.90;;;11.00;87.40;;;;;;5033875;28;20021;-78
2024/02/29 00:32:17;;;;;;;13.73;9.10;;;11.00;87.30;;;;;;5035273;28;20021;-77
2024/02/29 00:34:43;;;;;;;13.55;8.95;;;11.00;87.40;;;;;;5035259;28;20049;-77
2024/02/29 00:37:09;;;;;;;13.32;8.80;;;11.00;87.40;;;;;;5052043;28;20035;-78
2024/02/29 00:39:34;;;;;;;13.63;8.13;;;11.00;87.40;;;;;;5052979;28;20470;-78
2024/02/29 00:42:00;;;;;;;12.82;8.57;;;11.00;87.40;;;;;;5052610;28;20061;-78
2024/02/29 00:44:25;;;;;;;12.70;8.85;;;11.00;87.50;;;;;;5034786;28;20025;-77
2024/02/29 00:46:51;;;;;;;13.65;8.82;;;11.00;87.40;;;;;;5035062;28;20021;-78
2024/02/29 00:49:16;;;;;;;13.43;8.50;;;11.00;87.30;;;;;;5034836;28;20071;-77
2024/02/29 00:51:42;;;;;;;12.55;8.48;;;11.00;87.40;;;;;;5035065;28;20017;-77
2024/02/29 00:54:08;;;;;;;13.73;9.27;;;11.00;87.40;;;;;;5034746;28;20013;-77
2024/02/29 00:56:33;;;;;;;13.88;9.23;;;11.00;87.30;;;;;;5052773;28;20051;-76
2024/02/29 00:58:59;;;;;;;13.10;8.63;;;11.00;87.40;;;;;;5034812;28;20088;-77
2024/02/29 01:01:24;;;;;;;12.68;8.00;;;11.00;87.50;;;;;;5034765;28;20025;-77
2024/02/29 01:03:50;;;;;;;12.60;8.30;;;11.00;87.40;;;;;;5034736;28;20032;-77
2024/02/29 01:06:15;;;;;;;12.95;8.05;;;11.00;87.40;;;;;;5034692;28;20029;-78
2024/02/29 01:08:41;;;;;;;13.18;8.57;;;11.00;87.40;;;;;;5052449;28;20396;-76
2024/02/29 01:11:06;;;;;;;11.73;8.27;;;11.00;87.40;;;;;;5034610;28;20512;-78
2024/02/29 01:13:32;;;;;;;13.25;8.23;;;11.00;87.50;;;;;;5052426;28;20028;-78
2024/02/29 01:15:58;;;;;;;14.05;8.55;;;11.00;88.00;;;;;;5034509;28;20024;-77
2024/02/29 01:18:23;;;;;;;14.00;9.07;;;11.00;87.50;;;;;;5034629;28;20047;-77
2024/02/29 01:20:49;;;;;;;12.95;8.07;;;11.00;87.50;;;;;;5051776;28;20064;-77
2024/02/29 01:23:14;;;;;;;13.23;7.85;;;11.00;87.40;;;;;;5022254;28;20037;-77
2024/02/29 01:25:40;;;;;;;12.50;8.30;;;11.00;87.50;;;;;;5034864;28;20100;-78
2024/02/29 01:28:05;;;;;;;12.23;7.90;;;10.90;87.40;;;;;;5034163;28;20454;-78
2024/02/29 01:30:31;;;;;;;12.40;8.10;;;11.00;87.40;;;;;;5052146;28;20488;-77
2024/02/29 01:32:57;;;;;;;12.93;8.10;;;11.00;87.30;;;;;;5052056;28;20029;-77
2024/02/29 01:35:22;;;;;;;11.77;7.68;;;11.00;87.40;;;;;;5052434;28;20473;-77
2024/02/29 01:37:48;;;;;;;13.15;8.60;;;11.00;87.40;;;;;;5034380;28;20486;-78
2024/02/29 01:40:18;;;;;;;12.25;8.10;;;11.00;87.30;;;;;;5034448;28;20025;-78
2024/02/29 01:42:43;;;;;;;12.18;7.95;;;10.90;87.40;;;;;;5052068;28;20028;-77
2024/02/29 01:45:09;;;;;;;12.85;7.95;;;11.00;87.40;;;;;;5034480;28;20025;-78
2024/02/29 01:47:35;;;;;;;13.05;8.02;;;11.00;87.40;;;;;;5052801;28;20100;-78
2024/02/29 01:50:04;;;;;;;12.15;7.72;;;11.00;87.50;;;;;;5038283;28;20029;-77
2024/02/29 01:52:33;;;;;;;12.73;7.70;;;11.00;87.50;;;;;;5038083;28;20032;-78
2024/02/29 01:54:58;;;;;;;12.02;7.70;;;10.90;87.90;;;;;;5038471;28;20044;-77
2024/02/29 01:57:25;;;;;;;11.85;7.80;;;10.90;87.40;;;;;;5038234;28;20029;-78
2024/02/29 01:59:51;;;;;;;11.18;7.25;;;11.00;87.50;;;;;;5038024;28;20500;-77
2024/02/29 02:02:16;;;;;;;12.45;7.57;;;11.00;87.50;;;;;;5055565;28;20029;-77
2024/02/29 02:04:41;;;;;;;11.80;7.82;;;11.00;87.50;;;;;;5055962;28;20029;-76
2024/02/29 02:07:09;;;;;;;12.00;7.45;;;11.00;87.50;;;;;;5037718;28;20032;-77
2024/02/29 02:09:35;;;;;;;11.07;7.25;;;11.00;87.50;;;;;;5037981;28;20116;-78
2024/02/29 02:12:01;;;;;;;10.73;7.07;;;11.00;87.40;;;;;;5037752;28;20064;-78
2024/02/29 02:14:26;;;;;;;11.55;7.45;;;10.90;87.40;;;;;;5055611;28;20025;-78
2024/02/29 02:16:52;;;;;;;11.13;7.03;;;11.00;87.40;;;;;;5037653;28;20032;-78
2024/02/29 02:19:17;;;;;;;10.43;7.40;;;11.00;87.50;;;;;;5037543;28;20028;-77
2024/02/29 02:21:43;;;;;;;11.50;7.25;;;10.90;87.40;;;;;;5037556;28;20121;-77
2024/02/29 02:24:09;;;;;;;11.15;7.28;;;10.90;87.40;;;;;;5037466;28;20527;-77
2024/02/29 02:26:35;;;;;;;11.43;7.60;;;10.90;87.40;;;;;;5055157;28;20028;-77
2024/02/29 02:29:05;;;;;;;11.95;7.30;;;11.00;87.40;;;;;;5055238;28;20037;-78
2024/02/29 02:31:31;;;;;;;10.98;7.18;;;11.00;87.30;;;;;;5037740;28;20090;-78
2024/02/29 02:33:57;;;;;;;11.18;6.90;;;11.00;87.40;;;;;;5055321;28;20358;-78
2024/02/29 02:36:23;;;;;;;10.98;7.28;;;11.00;87.40;;;;;;5037566;28;20163;-77
2024/02/29 02:38:48;;;;;;;11.50;7.25;;;11.00;87.40;;;;;;5055253;28;20024;-79
2024/02/29 02:41:14;;;;;;;11.07;7.25;;;11.00;87.40;;;;;;5037420;28;20502;-78
2024/02/29 02:43:39;;;;;;;11.18;7.25;;;11.00;87.40;;;;;;5037253;28;20033;-77
2024/02/29 02:46:05;;;;;;;10.50;6.80;;;11.00;87.40;;;;;;5037237;28;20028;-77
2024/02/29 02:48:30;;;;;;;11.85;7.18;;;11.00;87.40;;;;;;5036840;28;20488;-78
2024/02/29 02:50:56;;;;;;;10.10;6.53;;;11.00;87.30;;;;;;5037041;28;20025;-77
2024/02/29 02:53:21;;;;;;;10.30;6.93;;;11.00;87.40;;;;;;5037131;28;20032;-78
2024/02/29 02:55:47;;;;;;;11.13;6.95;;;11.00;87.40;;;;;;5054972;28;20075;-78
2024/02/29 02:58:12;;;;;;;11.23;7.13;;;11.00;87.50;;;;;;5037013;28;20021;-77
2024/02/29 03:00:38;;;;;;;12.05;7.20;;;10.90;87.40;;;;;;5036000;28;20450;-78
2024/02/29 03:03:04;;;;;;;10.75;6.97;;;10.90;87.40;;;;;;5054881;28;20031;-77
2024/02/29 03:05:29;;;;;;;10.60;7.15;;;11.00;87.40;;;;;;5054814;28;20032;-77
2024/02/29 03:07:55;;;;;;;10.88;6.97;;;11.00;87.40;;;;;;5054650;28;20051;-78
2024/02/29 03:10:20;;;;;;;9.85;6.55;;;10.90;87.30;;;;;;5054635;28;20017;-77
2024/02/29 03:12:47;;;;;;;12.00;7.35;;;11.00;87.40;;;;;;5036499;28;20025;-76
2024/02/29 03:15:13;;;;;;;10.27;6.82;;;10.90;87.30;;;;;;5054426;28;20048;-78
2024/02/29 03:17:38;;;;;;;10.38;6.78;;;10.90;87.30;;;;;;5036627;28;20029;-77
2024/02/29 03:20:11;;;;;;;10.75;6.88;;;10.90;87.30;;;;;;5036743;28;20040;-78
2024/02/29 03:22:38;;;;;;;10.55;6.68;;;11.00;87.40;;;;;;5036513;28;20091;-78
2024/02/29 03:25:03;;;;;;;11.48;7.03;;;10.90;87.40;;;;;;5036447;28;20063;-77
2024/02/29 03:27:29;;;;;;;10.93;7.00;;;11.00;87.80;;;;;;5036186;28;20458;-77
2024/02/29 03:29:54;;;;;;;10.93;6.85;;;10.90;87.30;;;;;;5036479;28;20032;-78
2024/02/29 03:32:20;;;;;;;11.50;7.00;;;10.90;87.30;;;;;;5054007;28;20060;-77
2024/02/29 03:34:45;;;;;;;10.30;6.68;;;10.90;87.30;;;;;;5036309;28;20017;-77
2024/02/29 03:37:13;;;;;;;10.43;6.68;;;11.00;87.40;;;;;;5036392;28;20392;-77
2024/02/29 03:39:38;;;;;;;10.48;7.07;;;11.00;87.40;;;;;;5035836;28;20021;-77
2024/02/29 03:42:04;;;;;;;10.15;6.38;;;10.90;87.40;;;;;;5035667;28;20047;-77
2024/02/29 03:44:29;;;;;;;10.07;6.40;;;10.90;87.10;;;;;;5035830;28;20033;-77
2024/02/29 03:46:55;;;;;;;11.10;6.85;;;10.90;87.30;;;;;;5053901;28;20021;-77
2024/02/29 03:49:20;;;;;;;10.85;6.80;;;11.00;87.40;;;;;;5053611;28;20112;-78
2024/02/29 03:51:46;;;;;;;9.95;6.35;;;10.90;87.50;;;;;;5046998;28;20018;-77
2024/02/29 03:54:11;;;;;;;10.43;6.68;;;10.90;87.40;;;;;;5047997;28;20029;-77
2024/02/29 03:56:37;;;;;;;10.82;6.70;;;10.90;87.40;;;;;;5035765;28;20047;-77
2024/02/29 03:59:03;;;;;;;9.60;6.22;;;10.90;87.40;;;;;;5053750;28;20025;-77
2024/02/29 04:01:28;;;;;;;10.30;6.90;;;10.90;87.40;;;;;;5035943;28;20067;-77
2024/02/29 04:03:54;;;;;;;10.00;6.38;;;10.90;87.40;;;;;;5053238;28;20497;-77
2024/02/29 04:06:19;;;;;;;11.20;6.68;;;10.90;87.30;;;;;;5053564;28;20041;-77
2024/02/29 04:08:45;;;;;;;10.85;6.82;;;10.90;87.30;;;;;;5035561;28;20021;-77
2024/02/29 04:11:10;;;;;;;9.93;6.38;;;10.90;87.40;;;;;;5053234;28;20094;-77
2024/02/29 04:13:36;;;;;;;11.05;7.05;;;10.90;87.20;;;;;;5035424;28;20078;-77
2024/02/29 04:16:02;;;;;;;10.82;6.80;;;10.90;87.30;;;;;;5053525;28;20017;-77
2024/02/29 04:18:28;;;;;;;10.68;6.90;;;10.90;87.10;;;;;;5035341;28;20029;-77
2024/02/29 04:20:53;;;;;;;9.55;6.20;;;10.90;87.20;;;;;;5035612;28;20474;-77
2024/02/29 04:23:18;;;;;;;10.52;6.65;;;10.90;87.30;;;;;;5035222;28;20086;-77
2024/02/29 04:25:47;;;;;;;9.88;6.57;;;10.90;87.20;;;;;;5053290;28;20026;-77
2024/02/29 04:28:14;;;;;;;10.15;6.53;;;11.00;87.20;;;;;;5052932;28;20068;-76
2024/02/29 04:30:41;;;;;;;10.23;6.63;;;10.90;87.30;;;;;;5053171;28;20031;-77
2024/02/29 04:33:06;;;;;;;9.02;5.82;;;10.90;87.20;;;;;;5052991;28;20381;-78
2024/02/29 04:35:33;;;;;;;9.48;6.38;;;10.90;87.20;;;;;;5035203;28;20025;-76
2024/02/29 04:37:59;;;;;;;9.32;6.38;;;10.90;87.30;;;;;;5052886;28;20029;-77
2024/02/29 04:40:26;;;;;;;10.35;6.68;;;10.90;87.30;;;;;;5035001;28;20039;-76
2024/02/29 04:42:52;;;;;;;10.10;6.80;;;10.90;87.30;;;;;;5053024;28;20477;-77
2024/02/29 04:45:18;;;;;;;9.85;6.18;;;10.90;87.20;;;;;;5035109;28;20033;-77
2024/02/29 04:47:43;;;;;;;10.40;6.57;;;10.90;87.30;;;;;;5052976;28;20032;-77
2024/02/29 04:50:09;;;;;;;9.30;5.97;;;10.90;87.30;;;;;;5035014;28;20021;-77
2024/02/29 04:52:35;;;;;;;10.23;6.50;;;10.90;87.10;;;;;;5034728;28;20025;-77
2024/02/29 04:55:00;;;;;;;10.48;7.05;;;10.90;87.20;;;;;;5034951;28;20025;-77
2024/02/29 04:57:26;;;;;;;9.90;6.05;;;10.90;87.20;;;;;;5034830;28;20063;-77
2024/02/29 04:59:51;;;;;;;9.82;6.10;;;10.90;87.70;;;;;;5052728;28;20033;-77
2024/02/29 05:02:17;;;;;;;10.50;6.38;;;10.90;87.10;;;;;;5034551;28;20021;-77
2024/02/29 05:04:43;;;;;;;9.35;6.07;;;10.90;87.10;;;;;;5052553;28;20025;-77
2024/02/29 05:07:10;;;;;;;11.00;7.03;;;10.90;87.20;;;;;;5033101;28;20059;-77
2024/02/29 05:09:36;;;;;;;10.13;6.40;;;10.90;87.10;;;;;;5049038;28;20032;-79
2024/02/29 05:12:01;;;;;;;9.55;5.95;;;10.90;87.10;;;;;;5031059;28;20021;-79
2024/02/29 05:14:27;;;;;;;10.98;6.65;;;10.90;86.90;;;;;;5031291;28;20032;-77
2024/02/29 05:16:53;;;;;;;9.73;6.38;;;10.90;87.00;;;;;;5045451;28;20067;-79
2024/02/29 05:19:18;;;;;;;9.90;6.15;;;10.90;86.70;;;;;;5032159;28;20025;-80
2024/02/29 05:21:45;;;;;;;9.55;6.10;;;10.90;86.70;;;;;;5032377;28;20064;-79
2024/02/29 05:24:10;;;;;;;9.70;6.35;;;10.90;86.80;;;;;;5031764;28;20132;-78
2024/02/29 05:26:36;;;;;;;10.25;6.38;;;10.90;86.50;;;;;;5032530;28;20092;-78
2024/02/29 05:29:03;;;;;;;10.25;6.53;;;10.90;86.60;;;;;;5033175;28;20555;-79
2024/02/29 05:31:28;;;;;;;10.27;6.20;;;10.90;86.90;;;;;;5032514;28;20066;-78
2024/02/29 05:33:54;;;;;;;10.15;6.00;;;10.90;86.30;;;;;;5032862;28;20478;-78
2024/02/29 05:36:19;;;;;;;8.38;5.30;;;10.90;86.80;;;;;;5032158;28;20046;-77
2024/02/29 05:38:49;;;;;;;9.52;6.25;;;10.80;86.50;;;;;;5049201;28;20106;-78
2024/02/29 05:41:15;;;;;;;10.25;6.00;;;10.90;86.40;;;;;;5030790;28;20029;-77
2024/02/29 05:43:41;;;;;;;9.70;6.03;;;10.90;86.60;;;;;;5031015;28;20024;-78
2024/02/29 05:46:06;;;;;;;9.18;5.55;;;10.90;86.70;;;;;;5049507;28;20037;-78
2024/02/29 05:48:35;;;;;;;9.68;6.30;;;10.90;86.40;;;;;;5030801;28;20021;-77
2024/02/29 05:51:01;;;;;;;9.93;6.35;;;10.90;86.60;;;;;;5030999;28;20025;-78
2024/02/29 05:53:27;;;;;;;9.45;6.03;;;10.90;86.10;;;;;;5041254;28;20082;-78
2024/02/29 05:55:53;;;;;;;9.93;6.03;;;10.90;86.10;;;;;;5023867;28;20119;-77
2024/02/29 05:58:18;;;;;;;9.70;6.07;;;10.90;86.30;;;;;;5029519;28;20036;-75
2024/02/29 06:00:44;;;;;;;9.25;5.65;;;10.90;86.20;;;;;;5030375;28;20028;-78
2024/02/29 06:03:09;;;;;;;9.32;5.63;;;10.90;86.00;;;;;;5030107;28;20025;-76
2024/02/29 06:05:35;;;;;;;9.90;5.90;;;10.90;86.50;;;;;;5021195;28;20082;-78
2024/02/29 06:08:03;;;;;;;9.70;5.72;;;10.90;86.30;;;;;;5048705;28;20033;-77
2024/02/29 06:10:29;;;;;;;9.07;5.65;;;10.90;86.30;;;;;;5031591;28;20025;-77
2024/02/29 06:12:54;;;;;;;9.52;5.90;;;10.90;86.20;;;;;;5032266;28;20028;-77
2024/02/29 06:15:20;;;;;;;9.85;5.93;;;10.90;86.20;;;;;;5032039;28;20034;-79
2024/02/29 06:17:46;;;;;;;9.63;5.97;;;10.90;86.30;;;;;;5048587;28;20029;-77
2024/02/29 06:20:12;;;;;;;10.07;6.38;;;10.90;86.30;;;;;;5030582;28;20056;-76
2024/02/29 06:22:41;;;;;;;9.27;5.95;;;10.90;86.20;;;;;;5031370;28;20032;-78
2024/02/29 06:25:11;;;;;;;10.13;6.25;;;10.90;86.00;;;;;;5030406;28;20021;-78
2024/02/29 06:27:37;;;;;;;10.23;6.22;;;10.90;85.90;;;;;;5047186;28;20036;-78
2024/02/29 06:30:05;;;;;;;9.07;5.90;;;10.90;86.30;;;;;;5030542;28;20029;-78
2024/02/29 06:32:30;;;;;;;9.38;5.82;;;10.90;86.10;;;;;;5030767;28;20025;-78
2024/02/29 06:34:56;;;;;;;10.40;6.28;;;10.90;86.20;;;;;;5033135;28;20029;-76
2024/02/29 06:37:21;;;;;;;8.82;5.82;;;10.90;86.20;;;;;;5037069;28;20029;-77
2024/02/29 06:39:47;;;;;;;9.85;6.07;;;10.90;86.00;;;;;;5055163;28;20079;-77
2024/02/29 06:42:12;;;;;;;9.65;6.03;;;10.90;85.90;;;;;;5054826;28;20107;-77
2024/02/29 06:44:38;;;;;;;12.80;6.55;;;11.00;85.60;;;;;;5037195;28;20482;-77
2024/02/29 06:47:03;;;;;;;10.30;5.60;;;10.90;85.40;;;;;;5037130;28;20025;-77
2024/02/29 06:49:29;;;;;;;11.00;5.80;;;11.00;85.30;;;;;;5054919;28;20029;-77
2024/02/29 06:51:54;;;;;;;12.40;5.93;;;11.00;85.20;;;;;;5054902;28;20117;-77
2024/02/29 06:54:20;;;;;;;10.10;5.93;;;11.00;85.40;;;;;;5037207;28;20033;-77
2024/02/29 06:56:45;;;;;;;10.55;5.55;;;11.00;85.40;;;;;;5054844;28;20074;-76
2024/02/29 06:59:11;;;;;;;11.18;6.00;;;11.00;85.30;;;;;;5054768;28;20025;-77
2024/02/29 07:01:37;;;;;;;11.80;5.70;;;11.00;85.30;;;;;;5036964;28;20148;-77
2024/02/29 07:04:03;;;;;;;9.95;6.20;;;11.00;85.50;;;;;;5036578;28;20044;-77
2024/02/29 07:06:29;;;;;;;8.85;5.55;;;11.00;85.20;;;;;;5054618;28;20031;-76
2024/02/29 07:08:54;;;;;;;11.27;6.63;;;11.00;85.00;;;;;;5054658;28;20032;-76
2024/02/29 07:11:20;;;;;;;10.05;5.68;;;11.00;84.90;;;;;;5054664;28;20389;-77
2024/02/29 07:13:46;;;;;;;9.32;5.32;;;11.00;84.90;;;;;;5036574;28;20107;-77
2024/02/29 07:16:13;;;;;;;8.52;5.07;;;11.00;85.00;;;;;;5054174;28;20102;-77
2024/02/29 07:18:39;;;;;;;10.55;5.75;;;11.00;84.80;;;;;;5054183;28;20470;-77
2024/02/29 07:21:04;;;;;;;11.18;5.53;;;11.10;84.80;;;;;;5054657;28;20075;-77
2024/02/29 07:23:31;;;;;;;10.13;5.60;;;11.10;84.80;;;;;;5036566;28;20424;-77
2024/02/29 07:25:57;;;;;;;9.18;5.30;;;11.10;84.60;;;;;;5036579;28;20074;-77
2024/02/29 07:28:22;;;;;;;9.82;5.45;;;11.10;84.40;;;;;;5054215;28;20440;-77
2024/02/29 07:30:48;;;;;;;8.30;4.85;;;11.20;84.60;;;;;;5054186;28;20025;-77
2024/02/29 07:33:14;;;;;;;10.00;5.68;;;11.20;84.70;;;;;;5035994;28;20028;-77
2024/02/29 07:35:39;;;;;;;9.15;5.43;;;11.20;84.50;;;;;;5053706;28;20108;-76
2024/02/29 07:38:04;;;;;;;8.43;5.18;;;11.20;84.70;;;;;;5036183;28;20117;-77
2024/02/29 07:40:30;;;;;;;8.88;4.80;;;11.30;84.40;;;;;;5054046;28;20036;-76
2024/02/29 07:42:55;;;;;;;8.93;5.15;;;11.30;84.20;;;;;;5036004;28;20035;-77
2024/02/29 07:45:21;;;;;;;8.13;4.97;;;11.30;84.00;;;;;;5053488;28;20037;-78
2024/02/29 07:47:47;;;;;;;8.95;5.18;;;11.30;84.10;;;;;;5035784;28;20024;-77
2024/02/29 07:50:12;;;;;;;7.95;4.70;;;11.30;84.10;;;;;;5053822;28;20591;-77
2024/02/29 07:52:38;;;;;;;8.48;4.95;;;11.30;83.80;;;;;;5053791;28;20017;-77
2024/02/29 07:55:10;;;;;;;8.27;4.75;;;11.40;84.10;;;;;;5035898;28;20021;-77
2024/02/29 07:57:35;;;;;;;8.48;5.28;;;11.40;84.00;;;;;;5053806;28;20020;-76
2024/02/29 08:00:01;;;;;;;9.25;5.47;;;11.40;83.90;;;;;;5035764;28;20036;-77
2024/02/29 08:02:26;;;;;;;8.95;5.10;;;11.40;83.70;;;;;;5053192;28;20036;-77
2024/02/29 08:04:52;;;;;;;8.13;4.90;;;11.50;83.50;;;;;;5035878;28;20112;-75
2024/02/29 08:07:17;;;;;;;8.45;4.68;;;11.40;83.40;;;;;;5035609;28;20017;-76
2024/02/29 08:09:43;;;;;;;8.27;4.57;;;11.50;83.30;;;;;;5053519;28;20017;-77
2024/02/29 08:12:08;;;;;;;9.77;5.07;;;11.50;83.50;;;;;;5035464;28;20024;-77
2024/02/29 08:14:34;;;;;;;7.32;4.43;;;11.60;83.40;;;;;;5035562;28;20025;-77
2024/02/29 08:16:59;;;;;;;7.90;4.72;;;11.60;83.50;;;;;;5035649;28;20447;-77
2024/02/29 08:19:25;;;;;;;8.80;5.13;;;11.60;83.30;;;;;;5035494;28;20028;-77
2024/02/29 08:21:50;;;;;;;8.48;4.45;;;11.60;83.30;;;;;;5035339;28;20025;-76
2024/02/29 08:24:16;;;;;;;8.43;4.95;;;11.60;83.40;;;;;;5035370;28;20040;-77
2024/02/29 08:26:42;;;;;;;8.23;4.75;;;11.60;83.10;;;;;;5035079;28;20024;-77
2024/02/29 08:29:13;;;;;;;7.70;4.55;;;11.60;83.10;;;;;;5035032;28;20538;-76
2024/02/29 08:31:40;;;;;;;8.15;4.20;;;11.70;83.30;;;;;;5035269;28;20025;-77
2024/02/29 08:34:05;;;;;;;7.97;5.10;;;11.70;83.30;;;;;;5034608;28;20032;-76
2024/02/29 08:36:31;;;;;;;7.55;4.22;;;11.70;83.20;;;;;;5035203;28;20021;-77
2024/02/29 08:38:56;;;;;;;7.35;4.50;;;11.80;83.20;;;;;;5035255;28;20554;-77
2024/02/29 08:41:22;;;;;;;8.55;4.75;;;11.70;83.10;;;;;;5035207;28;20425;-77
2024/02/29 08:43:47;;;;;;;8.15;4.40;;;11.80;83.70;;;;;;5034889;28;20107;-77
2024/02/29 08:46:13;;;;;;;7.18;4.10;;;11.80;83.20;;;;;;5052985;28;20020;-77
2024/02/29 08:48:38;;;;;;;7.30;3.95;;;11.80;83.10;;;;;;5034869;28;20048;-77
2024/02/29 08:51:04;;;;;;;6.90;3.92;;;11.80;83.00;;;;;;5052979;28;20017;-77
2024/02/29 08:53:30;;;;;;;7.57;4.32;;;11.90;83.00;;;;;;5034772;28;20025;-77
2024/02/29 08:55:55;;;;;;;7.05;4.05;;;11.90;82.90;;;;;;5034928;28;20367;-77
2024/02/29 08:58:21;;;;;;;7.70;4.70;;;11.90;82.80;;;;;;5051689;28;20098;-75
2024/02/29 09:00:47;;;;;;;7.18;4.10;;;11.90;82.80;;;;;;5052482;28;20033;-76
2024/02/29 09:03:15;;;;;;;7.63;4.32;;;11.90;82.60;;;;;;5034494;28;20071;-77
2024/02/29 09:05:41;;;;;;;7.40;4.47;;;12.00;82.60;;;;;;5034707;28;20029;-77
2024/02/29 09:08:08;;;;;;;6.35;3.58;;;12.00;82.50;;;;;;5052457;28;20036;-77
2024/02/29 09:10:34;;;;;;;7.00;3.88;;;12.10;82.50;;;;;;5034806;28;20374;-78
2024/02/29 09:12:59;;;;;;;7.57;3.75;;;12.10;82.20;;;;;;5034749;28;20028;-77
2024/02/29 09:15:25;;;;;;;6.93;3.80;;;12.10;82.20;;;;;;5034777;28;20025;-77
2024/02/29 09:17:51;;;;;;;6.05;3.50;;;12.10;82.30;;;;;;5034285;28;20440;-78
2024/02/29 09:20:17;;;;;;;7.05;4.10;;;12.20;82.40;;;;;;5052407;28;20025;-77
2024/02/29 09:22:42;;;;;;;6.13;3.47;;;12.20;82.10;;;;;;5034245;28;20529;-76
2024/02/29 09:25:08;;;;;;;6.40;3.80;;;12.20;81.90;;;;;;5034542;28;20488;-77
2024/02/29 09:27:34;;;;;;;6.85;3.72;;;12.20;82.20;;;;;;5034059;28;20025;-77
2024/02/29 09:29:59;;;;;;;6.97;3.67;;;12.20;82.40;;;;;;5052407;28;20440;-77
2024/02/29 09:32:24;;;;;;;6.80;3.95;;;12.20;82.40;;;;;;5034493;28;20039;-77
2024/02/29 09:34:50;;;;;;;6.15;3.53;;;12.20;82.40;;;;;;5034163;28;20025;-77
2024/02/29 09:37:15;;;;;;;6.15;3.53;;;12.20;82.30;;;;;;5052237;28;20057;-77
2024/02/29 09:39:41;;;;;;;6.28;3.55;;;12.20;82.40;;;;;;5034465;28;20059;-77
2024/02/29 09:42:09;;;;;;;6.40;3.58;;;12.30;82.40;;;;;;5034040;28;20029;-77
2024/02/29 09:44:35;;;;;;;6.18;3.42;;;12.30;82.50;;;;;;5034227;28;20439;-77
2024/02/29 09:47:01;;;;;;;5.70;3.20;;;12.30;82.50;;;;;;5052044;28;20107;-77
2024/02/29 09:49:28;;;;;;;5.75;3.05;;;12.30;82.40;;;;;;5034422;28;20021;-77
2024/02/29 09:51:53;;;;;;;6.13;3.30;;;12.30;82.50;;;;;;5051893;28;20021;-76
2024/02/29 09:54:19;;;;;;;6.13;3.40;;;12.20;82.40;;;;;;5034204;28;20032;-77
2024/02/29 09:56:45;;;;;;;5.47;3.20;;;12.20;82.40;;;;;;5051999;28;20021;-76
2024/02/29 09:59:18;;;;;;;6.13;3.40;;;12.30;82.50;;;;;;5052177;28;20112;-77
2024/02/29 10:01:48;;;;;;;5.32;2.90;;;12.30;82.60;;;;;;5034088;28;20052;-77
2024/02/29 10:04:14;;;;;;;5.43;3.00;;;12.30;82.60;;;;;;5051868;28;20051;-77
2024/02/29 10:06:39;;;;;;;6.78;3.60;;;12.20;82.70;;;;;;5051744;28;20548;-77
2024/02/29 10:09:05;;;;;;;5.75;3.30;;;12.30;82.70;;;;;;5053257;28;20048;-77
2024/02/29 10:11:31;;;;;;;6.07;3.47;;;12.30;82.70;;;;;;5055834;28;20079;-77
2024/02/29 10:13:57;;;;;;;5.75;3.22;;;12.30;82.80;;;;;;5055397;28;20025;-77
2024/02/29 10:16:23;;;;;;;5.60;3.17;;;12.30;82.80;;;;;;5055481;28;20067;-77
2024/02/29 10:18:49;;;;;;;5.18;2.83;;;12.30;82.80;;;;;;5037649;28;20025;-77
2024/02/29 10:21:15;;;;;;;5.72;3.00;;;12.30;82.80;;;;;;5037764;28;20398;-77
2024/02/29 10:23:42;;;;;;;6.38;3.20;;;12.30;82.70;;;;;;5037381;28;20029;-77
2024/02/29 10:26:08;;;;;;;5.55;3.05;;;12.30;82.70;;;;;;5037976;28;20025;-77
2024/02/29 10:28:35;;;;;;;5.57;3.00;;;12.40;82.70;;;;;;5055357;28;20036;-77
2024/02/29 10:31:01;;;;;;;5.50;2.83;;;12.40;82.70;;;;;;5037744;28;20477;-77
2024/02/29 10:33:28;;;;;;;5.43;2.80;;;12.40;82.60;;;;;;5037279;28;20028;-77
2024/02/29 10:35:53;;;;;;;6.05;3.22;;;12.40;82.50;;;;;;5055169;28;20098;-77
2024/02/29 10:38:23;;;;;;;5.82;3.13;;;12.40;82.50;;;;;;5037513;28;20383;-77
2024/02/29 10:40:56;;;;;;;5.15;2.60;;;12.40;82.40;;;;;;5037434;28;20486;-77
2024/02/29 10:43:23;;;;;;;5.15;2.85;;;12.50;82.30;;;;;;5037151;28;20029;-77
2024/02/29 10:45:50;;;;;;;5.53;2.95;;;12.50;82.20;;;;;;5037430;28;20397;-77
2024/02/29 10:48:27;;;;;;;4.72;2.78;;;12.50;82.20;;;;;;5055026;28;20025;-77
2024/02/29 10:51:03;;;;;;;6.00;2.60;;;12.50;82.10;;;;;;5037228;28;20025;-77
2024/02/29 10:54:19;;;;;;;6.00;2.85;;;12.50;82.00;;;;;;5036982;28;20478;-77
2024/02/29 10:56:49;;;;;;;5.85;2.83;;;12.50;82.00;;;;;;4954531;29;20034;-77
2024/02/29 10:59:19;;;;;;;5.05;2.70;;;12.60;82.00;;;;;;4970465;28;20535;-77
2024/02/29 11:01:46;;;;;;;4.75;2.40;;;12.60;81.90;;;;;;5022326;28;20037;-77
2024/02/29 11:04:11;;;;;;;5.13;2.65;;;12.60;81.80;;;;;;5055056;28;20036;-77
2024/02/29 11:06:44;;;;;;;5.50;3.00;;;12.60;81.70;;;;;;5037179;28;20021;-77
2024/02/29 11:09:12;;;;;;;5.72;3.00;;;12.60;81.60;;;;;;5036990;28;20455;-77
2024/02/29 11:11:38;;;;;;;5.20;2.90;;;12.60;81.60;;;;;;5036887;28;20029;-76
2024/02/29 11:14:09;;;;;;;5.40;2.80;;;12.70;81.60;;;;;;5036676;28;20017;-78
2024/02/29 11:16:40;;;;;;;4.45;2.47;;;12.70;81.50;;;;;;5036811;28;20024;-77
2024/02/29 11:19:07;;;;;;;5.45;2.63;;;12.70;81.40;;;;;;5036606;28;20107;-77
2024/02/29 11:21:33;;;;;;;4.40;2.42;;;12.70;81.30;;;;;;5035636;28;20021;-77
2024/02/29 11:24:15;;;;;;;4.65;2.60;;;12.70;81.30;;;;;;5054375;28;20100;-77
2024/02/29 11:26:41;;;;;;;4.75;2.53;;;12.70;81.70;;;;;;5054413;28;20071;-77
2024/02/29 11:29:19;;;;;;;5.32;2.55;;;12.80;81.20;;;;;;5036525;28;20033;-77
2024/02/29 11:31:49;;;;;;;5.53;2.95;;;12.80;81.10;;;;;;5054366;28;20732;-78
2024/02/29 11:34:18;;;;;;;5.15;2.70;;;12.80;81.70;;;;;;5036575;28;20025;-77
2024/02/29 11:36:45;;;;;;;5.18;2.65;;;12.80;81.10;;;;;;5036478;28;20057;-77
2024/02/29 11:39:10;;;;;;;4.47;2.30;;;12.80;81.10;;;;;;5036505;28;20024;-77
2024/02/29 11:41:37;;;;;;;4.57;2.25;;;12.80;81.20;;;;;;5036396;28;20021;-77
2024/02/29 11:44:03;;;;;;;4.18;2.28;;;12.80;81.20;;;;;;5036154;28;20056;-77
2024/02/29 11:46:28;;;;;;;4.63;2.28;;;12.80;81.30;;;;;;5036109;28;20029;-76
2024/02/29 11:48:54;;;;;;;4.88;2.60;;;12.70;81.30;;;;;;5035634;28;20032;-77
2024/02/29 11:51:20;;;;;;;4.75;2.40;;;12.60;81.40;;;;;;5036080;28;20028;-77
2024/02/29 11:53:45;;;;;;;4.65;2.45;;;12.70;81.50;;;;;;5036289;28;20024;-77
2024/02/29 11:56:11;;;;;;;5.03;2.75;;;12.70;81.60;;;;;;5035989;28;20067;-77
2024/02/29 11:58:37;;;;;;;4.70;2.60;;;12.70;81.50;;;;;;5035694;28;20024;-76
2024/02/29 12:01:03;;;;;;;4.72;2.47;;;12.70;81.50;;;;;;5053916;28;20028;-77
2024/02/29 12:03:29;;;;;;;4.80;2.60;;;12.70;81.50;;;;;;5035558;28;20028;-77
2024/02/29 12:05:57;;;;;;;5.20;2.50;;;12.70;81.50;;;;;;5035799;28;20108;-77
2024/02/29 12:08:26;;;;;;;5.10;2.80;;;12.70;81.50;;;;;;5053481;28;20021;-77
2024/02/29 12:10:52;;;;;;;4.95;2.60;;;12.70;81.50;;;;;;5035636;28;20025;-77
2024/02/29 12:13:18;;;;;;;4.75;2.58;;;12.70;81.50;;;;;;5053196;28;20424;-77
2024/02/29 12:15:44;;;;;;;5.05;2.50;;;12.70;81.50;;;;;;5053636;28;20021;-77
2024/02/29 12:18:10;;;;;;;5.05;2.75;;;12.70;81.60;;;;;;5035449;28;20036;-77
2024/02/29 12:20:36;;;;;;;4.80;2.70;;;12.70;81.70;;;;;;5052936;28;20096;-75
2024/02/29 12:23:02;;;;;;;5.18;2.80;;;12.70;81.80;;;;;;5035351;28;20123;-77
2024/02/29 12:25:27;;;;;;;4.78;2.40;;;12.60;81.90;;;;;;5035140;28;20501;-77
2024/02/29 12:27:54;;;;;;;4.70;2.50;;;12.60;82.00;;;;;;5034866;28;20060;-78
2024/02/29 12:30:20;;;;;;;4.95;2.60;;;12.60;82.10;;;;;;5033638;28;20755;-77
2024/02/29 12:32:48;;;;;;;5.28;2.75;;;12.60;82.10;;;;;;5044839;28;20021;-77
2024/02/29 12:35:14;;;;;;;5.35;2.70;;;12.50;82.20;;;;;;5012189;28;20079;-76
2024/02/29 12:37:42;;;;;;;4.93;2.80;;;12.60;82.30;;;;;;5011454;28;20418;-77